Time;durP1;ratioP1;P1;durP2;ratioP2;P2;SDS_P1;SDS_P2;PMS_P1;PMS_P2;Temp;Humidity;BMP_temperature;BMP_pressure;BME280_temperature;BME280_humidity;BME280_pressure;Samples;Min_cycle;Max_cycle;Signal;HPM_P1;HPM_P2
2021/06/06 00:01:27;;;;;;;135.00;58.33;;;;;;;;;;5147361;27;20146;-70
2021/06/06 00:03:54;;;;;;;126.68;55.10;;;;;;;;;;5151793;27;20141;-69
2021/06/06 00:06:31;;;;;;;134.00;59.22;;;;;;;;;;5125348;27;20042;-69
2021/06/06 00:08:58;;;;;;;140.77;57.83;;;;;;;;;;5148647;27;20031;-69
2021/06/06 00:11:31;;;;;;;119.70;54.53;;;;;;;;;;5148981;27;20539;-69
2021/06/06 00:13:59;;;;;;;132.25;57.20;;;;;;;;;;5128545;27;20114;-69
2021/06/06 00:16:27;;;;;;;103.68;53.42;;;;;;;;;;5143476;27;20507;-70
2021/06/06 00:18:54;;;;;;;106.10;54.92;;;;;;;;;;5147042;27;20458;-70
2021/06/06 00:21:21;;;;;;;106.45;54.90;;;;;;;;;;5150019;27;20049;-69
2021/06/06 00:23:47;;;;;;;110.18;57.33;;;;;;;;;;5146965;27;20043;-70
2021/06/06 00:26:14;;;;;;;111.07;57.63;;;;;;;;;;5142745;27;20034;-69
2021/06/06 00:28:40;;;;;;;124.13;58.92;;;;;;;;;;5128290;27;21805;-71
2021/06/06 00:31:07;;;;;;;112.22;59.63;;;;;;;;;;5125137;27;21703;-70
2021/06/06 00:33:35;;;;;;;118.97;57.60;;;;;;;;;;5149996;27;20102;-69
2021/06/06 00:36:01;;;;;;;103.40;57.80;;;;;;;;;;5151868;27;20090;-69
2021/06/06 00:38:27;;;;;;;94.25;53.45;;;;;;;;;;5130583;27;20065;-69
2021/06/06 00:40:56;;;;;;;98.85;56.45;;;;;;;;;;5145781;27;20046;-70
2021/06/06 00:43:22;;;;;;;93.43;54.75;;;;;;;;;;5131947;27;20049;-69
2021/06/06 00:45:48;;;;;;;87.55;51.47;;;;;;;;;;5132828;27;20121;-69
2021/06/06 00:48:15;;;;;;;99.32;56.78;;;;;;;;;;5126011;27;20043;-69
2021/06/06 00:50:43;;;;;;;101.80;58.72;;;;;;;;;;5130868;27;20041;-71
2021/06/06 00:53:12;;;;;;;83.38;51.70;;;;;;;;;;5141920;27;20400;-69
2021/06/06 00:55:39;;;;;;;93.10;55.35;;;;;;;;;;5152789;27;20571;-69
2021/06/06 00:58:08;;;;;;;97.43;55.58;;;;;;;;;;5154230;27;20469;-69
2021/06/06 01:00:36;;;;;;;92.28;51.55;;;;;;;;;;5148992;27;20041;-69
2021/06/06 01:03:02;;;;;;;98.90;54.33;;;;;;;;;;5150710;27;20122;-69
2021/06/06 01:05:41;;;;;;;90.75;51.50;;;;;;;;;;5145621;27;20107;-70
2021/06/06 01:08:09;;;;;;;86.22;51.08;;;;;;;;;;5150503;27;20126;-69
2021/06/06 01:10:36;;;;;;;88.55;52.63;;;;;;;;;;5140697;27;20035;-69
2021/06/06 01:13:11;;;;;;;73.10;45.90;;;;;;;;;;5129081;27;20042;-69
2021/06/06 01:15:38;;;;;;;80.70;47.75;;;;;;;;;;5139766;27;20066;-69
2021/06/06 01:18:07;;;;;;;77.85;49.58;;;;;;;;;;5140277;27;20069;-69
2021/06/06 01:21:05;;;;;;;75.15;46.95;;;;;;;;;;5146286;27;20062;-69
2021/06/06 01:23:50;;;;;;;74.78;46.92;;;;;;;;;;5107992;27;20103;-69
2021/06/06 01:26:26;;;;;;;74.07;47.03;;;;;;;;;;5141299;27;20037;-69
2021/06/06 01:29:08;;;;;;;74.38;47.10;;;;;;;;;;5145871;27;20068;-71
2021/06/06 01:31:35;;;;;;;75.13;47.40;;;;;;;;;;5147138;27;20087;-69
2021/06/06 01:34:03;;;;;;;72.65;45.42;;;;;;;;;;5147338;27;20172;-69
2021/06/06 01:36:37;;;;;;;72.05;47.28;;;;;;;;;;5151327;27;20041;-69
2021/06/06 01:39:03;;;;;;;64.60;43.58;;;;;;;;;;5149619;27;20119;-71
2021/06/06 01:41:34;;;;;;;71.45;46.85;;;;;;;;;;5142411;27;20031;-69
2021/06/06 01:44:01;;;;;;;69.63;44.20;;;;;;;;;;5148655;27;20035;-69
2021/06/06 01:46:36;;;;;;;70.25;45.00;;;;;;;;;;5148231;27;20090;-70
2021/06/06 01:49:03;;;;;;;69.55;45.88;;;;;;;;;;5145932;27;20577;-71
2021/06/06 01:51:44;;;;;;;62.05;42.00;;;;;;;;;;5143603;27;20040;-69
2021/06/06 01:54:12;;;;;;;72.43;45.15;;;;;;;;;;5129692;27;20163;-69
2021/06/06 01:56:40;;;;;;;66.38;44.67;;;;;;;;;;5146896;27;20035;-69
2021/06/06 01:59:15;;;;;;;76.28;46.35;;;;;;;;;;5146577;27;20042;-69
2021/06/06 02:01:41;;;;;;;70.90;45.35;;;;;;;;;;5151314;27;20111;-70
2021/06/06 02:04:08;;;;;;;69.95;45.78;;;;;;;;;;5138534;27;20054;-69
2021/06/06 02:06:38;;;;;;;74.20;45.38;;;;;;;;;;5132088;27;20111;-70
2021/06/06 02:09:08;;;;;;;74.63;47.53;;;;;;;;;;5140120;27;20122;-69
2021/06/06 02:11:47;;;;;;;79.13;47.58;;;;;;;;;;5147138;27;20115;-71
2021/06/06 02:14:15;;;;;;;65.80;43.05;;;;;;;;;;5143473;27;20631;-69
2021/06/06 02:16:44;;;;;;;70.30;42.03;;;;;;;;;;5144891;27;20043;-70
2021/06/06 02:19:10;;;;;;;78.63;46.67;;;;;;;;;;5138152;27;20110;-69
2021/06/06 02:21:36;;;;;;;76.55;45.08;;;;;;;;;;5127480;27;20107;-69
2021/06/06 02:24:04;;;;;;;78.43;44.88;;;;;;;;;;5143006;27;20452;-70
2021/06/06 02:26:30;;;;;;;79.93;44.35;;;;;;;;;;5149687;27;20034;-72
2021/06/06 02:29:02;;;;;;;75.60;43.33;;;;;;;;;;5148028;27;21179;-70
2021/06/06 02:31:43;;;;;;;79.18;43.50;;;;;;;;;;5142888;27;20377;-69
2021/06/06 02:34:13;;;;;;;75.57;42.13;;;;;;;;;;5125559;27;20043;-70
2021/06/06 02:36:41;;;;;;;65.35;41.00;;;;;;;;;;5145623;27;20036;-70
2021/06/06 02:39:07;;;;;;;67.15;42.45;;;;;;;;;;5148686;27;20480;-69
2021/06/06 02:41:53;;;;;;;70.82;43.78;;;;;;;;;;5145698;27;20431;-69
2021/06/06 02:44:26;;;;;;;84.28;43.85;;;;;;;;;;5145309;27;20038;-69
2021/06/06 02:46:54;;;;;;;68.73;41.27;;;;;;;;;;5127502;27;20133;-71
2021/06/06 02:49:29;;;;;;;67.13;41.50;;;;;;;;;;5117000;27;20114;-69
2021/06/06 02:52:04;;;;;;;65.57;40.88;;;;;;;;;;5149557;27;20098;-72
2021/06/06 02:54:39;;;;;;;76.43;43.60;;;;;;;;;;5134362;27;20397;-70
2021/06/06 02:57:07;;;;;;;70.28;41.08;;;;;;;;;;5131186;27;20034;-69
2021/06/06 02:59:41;;;;;;;72.68;44.17;;;;;;;;;;5152275;27;20167;-69
2021/06/06 03:02:12;;;;;;;75.72;42.60;;;;;;;;;;5135495;27;20400;-71
2021/06/06 03:04:40;;;;;;;71.75;42.30;;;;;;;;;;5153750;27;20208;-69
2021/06/06 03:07:18;;;;;;;76.45;44.20;;;;;;;;;;5151326;27;20047;-69
2021/06/06 03:09:45;;;;;;;69.55;43.00;;;;;;;;;;5149497;27;20035;-70
2021/06/06 03:12:14;;;;;;;80.38;44.22;;;;;;;;;;5152994;27;20038;-69
2021/06/06 03:14:41;;;;;;;71.38;42.45;;;;;;;;;;5149998;27;20027;-70
2021/06/06 03:17:20;;;;;;;80.82;44.53;;;;;;;;;;5153055;27;20042;-70
2021/06/06 03:19:48;;;;;;;80.80;44.20;;;;;;;;;;5150318;27;20051;-69
2021/06/06 03:22:17;;;;;;;76.93;44.55;;;;;;;;;;5149369;27;20031;-70
2021/06/06 03:24:46;;;;;;;77.90;45.15;;;;;;;;;;5150611;27;20038;-69
2021/06/06 03:27:13;;;;;;;83.97;44.20;;;;;;;;;;5153609;27;20030;-70
2021/06/06 03:29:50;;;;;;;89.28;46.42;;;;;;;;;;5148466;27;20516;-69
2021/06/06 03:32:19;;;;;;;89.43;44.22;;;;;;;;;;5154796;27;20608;-69
2021/06/06 03:34:45;;;;;;;79.85;43.85;;;;;;;;;;5156958;27;20046;-69
2021/06/06 03:37:12;;;;;;;72.35;41.85;;;;;;;;;;5150669;27;20062;-69
2021/06/06 03:39:38;;;;;;;86.43;43.65;;;;;;;;;;5129473;27;20060;-69
2021/06/06 03:42:04;;;;;;;84.03;44.97;;;;;;;;;;5149861;27;20370;-69
2021/06/06 03:44:30;;;;;;;94.75;48.30;;;;;;;;;;5150041;27;20030;-69
2021/06/06 03:46:56;;;;;;;88.75;46.85;;;;;;;;;;5129001;27;20043;-69
2021/06/06 03:49:24;;;;;;;88.10;48.15;;;;;;;;;;5146750;27;20052;-70
2021/06/06 03:51:50;;;;;;;88.47;46.95;;;;;;;;;;5161129;27;20489;-69
2021/06/06 03:54:17;;;;;;;85.45;48.65;;;;;;;;;;5123096;27;20038;-69
2021/06/06 03:56:44;;;;;;;88.28;48.67;;;;;;;;;;5148801;27;20038;-69
2021/06/06 03:59:12;;;;;;;69.03;44.60;;;;;;;;;;5148793;27;20486;-69
2021/06/06 04:01:39;;;;;;;77.15;45.35;;;;;;;;;;5149128;27;20043;-70
2021/06/06 04:04:05;;;;;;;72.90;44.20;;;;;;;;;;5152201;27;20043;-69
2021/06/06 04:06:32;;;;;;;72.18;41.83;;;;;;;;;;5146238;27;21863;-70
2021/06/06 04:08:58;;;;;;;69.47;42.15;;;;;;;;;;5132293;27;20047;-69
2021/06/06 04:11:24;;;;;;;69.15;40.67;;;;;;;;;;5142057;27;20047;-69
2021/06/06 04:13:51;;;;;;;63.63;41.83;;;;;;;;;;5152584;27;20485;-69
2021/06/06 04:16:18;;;;;;;73.57;43.15;;;;;;;;;;5155996;27;20108;-69
2021/06/06 04:18:45;;;;;;;65.10;39.45;;;;;;;;;;5148872;27;20043;-70
2021/06/06 04:21:12;;;;;;;64.47;39.13;;;;;;;;;;5152449;27;20043;-70
2021/06/06 04:23:39;;;;;;;62.08;38.75;;;;;;;;;;5141803;27;20407;-69
2021/06/06 04:26:05;;;;;;;59.17;38.03;;;;;;;;;;5133558;27;20078;-72
2021/06/06 04:28:31;;;;;;;60.33;38.67;;;;;;;;;;5128644;27;20030;-69
2021/06/06 04:30:58;;;;;;;66.40;38.95;;;;;;;;;;5151249;27;20043;-69
2021/06/06 04:33:24;;;;;;;72.85;39.92;;;;;;;;;;5151694;27;20156;-69
2021/06/06 04:35:51;;;;;;;72.55;41.53;;;;;;;;;;5143834;27;20034;-69
2021/06/06 04:38:19;;;;;;;90.75;45.17;;;;;;;;;;5139191;27;20079;-70
2021/06/06 04:40:45;;;;;;;87.95;43.00;;;;;;;;;;5149645;27;20030;-70
2021/06/06 04:43:12;;;;;;;109.90;46.40;;;;;;;;;;5132601;27;20083;-69
2021/06/06 04:45:38;;;;;;;106.07;45.67;;;;;;;;;;5145012;27;20124;-69
2021/06/06 04:48:27;;;;;;;116.38;47.88;;;;;;;;;;5130305;27;20043;-72
2021/06/06 04:50:55;;;;;;;141.38;50.47;;;;;;;;;;5131824;27;20077;-71
2021/06/06 04:53:21;;;;;;;129.43;47.33;;;;;;;;;;5149571;27;20047;-69
2021/06/06 04:55:48;;;;;;;127.30;49.28;;;;;;;;;;5129549;27;20043;-69
2021/06/06 04:58:16;;;;;;;121.57;47.75;;;;;;;;;;5147874;27;20043;-70
2021/06/06 05:00:42;;;;;;;121.00;47.58;;;;;;;;;;5147271;27;20030;-69
2021/06/06 05:03:10;;;;;;;133.63;51.38;;;;;;;;;;5149942;27;20050;-70
2021/06/06 05:05:37;;;;;;;123.95;47.15;;;;;;;;;;5145384;27;20043;-69
2021/06/06 05:08:04;;;;;;;118.03;46.47;;;;;;;;;;5148407;27;20062;-69
2021/06/06 05:10:33;;;;;;;151.02;50.28;;;;;;;;;;5147698;27;20073;-70
2021/06/06 05:12:59;;;;;;;144.43;47.97;;;;;;;;;;5151175;27;20427;-69
2021/06/06 05:15:26;;;;;;;127.45;44.25;;;;;;;;;;5125192;27;20130;-69
2021/06/06 05:17:52;;;;;;;110.15;38.30;;;;;;;;;;5145750;27;20083;-69
2021/06/06 05:20:21;;;;;;;125.93;42.00;;;;;;;;;;5153656;27;20070;-69
2021/06/06 05:22:48;;;;;;;131.48;42.40;;;;;;;;;;5143576;27;20034;-69
2021/06/06 05:25:14;;;;;;;116.20;39.50;;;;;;;;;;5131216;27;20206;-69
2021/06/06 05:27:41;;;;;;;114.45;39.33;;;;;;;;;;5129801;27;20504;-69
2021/06/06 05:30:09;;;;;;;121.75;39.80;;;;;;;;;;5130301;27;20058;-71
2021/06/06 05:32:35;;;;;;;114.38;38.47;;;;;;;;;;5150700;27;20037;-69
2021/06/06 05:35:01;;;;;;;109.50;40.28;;;;;;;;;;5147970;27;20031;-71
2021/06/06 05:37:27;;;;;;;102.15;38.00;;;;;;;;;;5148270;27;20042;-71
2021/06/06 05:39:53;;;;;;;113.35;36.42;;;;;;;;;;5139593;27;20041;-69
2021/06/06 05:42:20;;;;;;;114.97;39.15;;;;;;;;;;5129121;27;20091;-69
2021/06/06 05:44:46;;;;;;;106.47;37.83;;;;;;;;;;5153643;27;20133;-69
2021/06/06 05:47:12;;;;;;;104.57;38.13;;;;;;;;;;5131735;27;20034;-71
2021/06/06 05:49:39;;;;;;;100.05;39.92;;;;;;;;;;5151476;27;20038;-69
2021/06/06 05:52:05;;;;;;;93.15;37.10;;;;;;;;;;5148929;27;20043;-69
2021/06/06 05:54:31;;;;;;;95.78;39.95;;;;;;;;;;5147747;27;20045;-69
2021/06/06 05:56:57;;;;;;;111.30;40.67;;;;;;;;;;5144659;27;20049;-69
2021/06/06 05:59:24;;;;;;;104.35;38.95;;;;;;;;;;5147631;27;20035;-69
2021/06/06 06:01:50;;;;;;;95.28;37.38;;;;;;;;;;5146349;27;20038;-70
2021/06/06 06:04:17;;;;;;;107.07;41.47;;;;;;;;;;5144840;27;20477;-69
2021/06/06 06:06:43;;;;;;;90.30;39.10;;;;;;;;;;5150686;27;20059;-69
2021/06/06 06:09:09;;;;;;;80.63;35.22;;;;;;;;;;5150540;27;20043;-71
2021/06/06 06:11:35;;;;;;;77.43;35.47;;;;;;;;;;5149489;27;20070;-69
2021/06/06 06:14:01;;;;;;;78.80;33.47;;;;;;;;;;5152087;27;20066;-69
2021/06/06 06:16:32;;;;;;;74.43;32.78;;;;;;;;;;5124725;27;20039;-69
2021/06/06 06:18:58;;;;;;;81.28;35.75;;;;;;;;;;5148826;27;20046;-69
2021/06/06 06:21:26;;;;;;;86.50;35.20;;;;;;;;;;5151259;27;20035;-68
2021/06/06 06:23:52;;;;;;;73.93;31.80;;;;;;;;;;5154355;27;20026;-69
2021/06/06 06:26:20;;;;;;;80.97;33.58;;;;;;;;;;5140187;27;20046;-69
2021/06/06 06:29:07;;;;;;;72.90;30.38;;;;;;;;;;5122899;27;20039;-69
2021/06/06 06:31:33;;;;;;;72.28;32.40;;;;;;;;;;5154059;27;20465;-69
2021/06/06 06:34:00;;;;;;;82.43;34.92;;;;;;;;;;5150279;27;20054;-69
2021/06/06 06:36:29;;;;;;;83.65;34.75;;;;;;;;;;5131623;27;20041;-73
2021/06/06 06:38:56;;;;;;;73.78;33.50;;;;;;;;;;5138698;27;20030;-71
2021/06/06 06:41:23;;;;;;;71.25;31.08;;;;;;;;;;5122806;27;20054;-71
2021/06/06 06:43:50;;;;;;;63.33;29.88;;;;;;;;;;5125395;27;20050;-72
2021/06/06 06:46:16;;;;;;;76.22;33.22;;;;;;;;;;5126916;27;20047;-74
2021/06/06 06:48:42;;;;;;;68.00;32.80;;;;;;;;;;5137563;27;20042;-72
2021/06/06 06:51:09;;;;;;;65.53;33.55;;;;;;;;;;5152693;27;20443;-73
2021/06/06 06:53:35;;;;;;;62.33;33.40;;;;;;;;;;5147041;27;20042;-72
2021/06/06 06:56:01;;;;;;;62.33;33.53;;;;;;;;;;5138274;27;20045;-72
2021/06/06 06:58:31;;;;;;;66.85;34.22;;;;;;;;;;5129695;27;20039;-71
2021/06/06 07:00:57;;;;;;;62.50;33.13;;;;;;;;;;5129125;27;20072;-73
2021/06/06 07:03:28;;;;;;;72.32;35.80;;;;;;;;;;5145944;27;20050;-72
2021/06/06 07:05:56;;;;;;;62.05;34.50;;;;;;;;;;5155870;27;20061;-71
2021/06/06 07:08:25;;;;;;;62.60;32.60;;;;;;;;;;5141248;27;20109;-73
2021/06/06 07:10:52;;;;;;;61.95;33.25;;;;;;;;;;5155006;27;20038;-73
2021/06/06 07:13:18;;;;;;;47.90;29.85;;;;;;;;;;5128229;27;20177;-76
2021/06/06 07:15:44;;;;;;;52.03;30.17;;;;;;;;;;5115619;27;20404;-73
2021/06/06 07:18:14;;;;;;;53.17;30.23;;;;;;;;;;5128720;27;20039;-73
2021/06/06 07:20:40;;;;;;;49.53;29.10;;;;;;;;;;5131519;27;20134;-73
2021/06/06 07:23:09;;;;;;;44.85;27.52;;;;;;;;;;5119787;27;20047;-73
2021/06/06 07:25:35;;;;;;;46.95;29.17;;;;;;;;;;5137615;27;20038;-73
2021/06/06 07:28:01;;;;;;;54.80;31.48;;;;;;;;;;5153087;27;20416;-73
2021/06/06 07:30:29;;;;;;;44.42;29.38;;;;;;;;;;5133566;27;20037;-72
2021/06/06 07:32:56;;;;;;;49.30;28.65;;;;;;;;;;5152224;27;20035;-73
2021/06/06 07:35:27;;;;;;;53.83;30.40;;;;;;;;;;5127941;27;20067;-76
2021/06/06 07:37:55;;;;;;;55.15;32.97;;;;;;;;;;5148445;27;20060;-73
2021/06/06 07:40:24;;;;;;;59.72;35.22;;;;;;;;;;5130944;27;20393;-73
2021/06/06 07:42:51;;;;;;;57.22;35.10;;;;;;;;;;5151014;27;20049;-70
2021/06/06 07:45:18;;;;;;;58.67;33.50;;;;;;;;;;5141973;27;20039;-72
2021/06/06 07:47:44;;;;;;;63.58;35.13;;;;;;;;;;5150256;27;20053;-70
2021/06/06 07:50:17;;;;;;;62.03;34.45;;;;;;;;;;5128339;27;20039;-70
2021/06/06 07:52:43;;;;;;;54.22;32.90;;;;;;;;;;5143760;27;20064;-70
2021/06/06 07:55:11;;;;;;;56.03;32.60;;;;;;;;;;5148262;27;20142;-70
2021/06/06 07:57:37;;;;;;;50.00;30.42;;;;;;;;;;5150403;27;20477;-70
2021/06/06 08:00:05;;;;;;;63.38;32.90;;;;;;;;;;5154554;27;20062;-70
2021/06/06 08:02:31;;;;;;;61.83;32.25;;;;;;;;;;5129610;27;20041;-70
2021/06/06 08:04:57;;;;;;;70.20;36.28;;;;;;;;;;5144631;27;20447;-70
2021/06/06 08:07:28;;;;;;;70.93;37.92;;;;;;;;;;5145981;27;20043;-72
2021/06/06 08:09:54;;;;;;;65.07;35.38;;;;;;;;;;5127069;27;20155;-69
2021/06/06 08:12:21;;;;;;;58.35;34.60;;;;;;;;;;5147502;27;20043;-74
2021/06/06 08:14:47;;;;;;;58.20;35.10;;;;;;;;;;5144634;27;20043;-71
2021/06/06 08:17:13;;;;;;;63.83;35.60;;;;;;;;;;5149997;27;20140;-69
2021/06/06 08:19:40;;;;;;;55.67;32.53;;;;;;;;;;5132458;27;20034;-69
2021/06/06 08:22:06;;;;;;;60.40;36.17;;;;;;;;;;5151245;27;20034;-69
2021/06/06 08:24:32;;;;;;;60.40;35.55;;;;;;;;;;5146463;27;20042;-69
2021/06/06 08:26:58;;;;;;;56.53;34.50;;;;;;;;;;5139758;27;20478;-69
2021/06/06 08:29:25;;;;;;;67.60;37.75;;;;;;;;;;5132650;27;20061;-72
2021/06/06 08:31:52;;;;;;;77.50;38.95;;;;;;;;;;5150179;27;20039;-69
2021/06/06 08:34:21;;;;;;;72.07;38.50;;;;;;;;;;5148929;27;20625;-69
2021/06/06 08:36:48;;;;;;;77.38;40.45;;;;;;;;;;5146932;27;21112;-70
2021/06/06 08:39:25;;;;;;;69.25;37.47;;;;;;;;;;5127126;27;20153;-68
2021/06/06 08:41:54;;;;;;;80.47;39.88;;;;;;;;;;5150644;27;20039;-69
2021/06/06 08:44:23;;;;;;;75.20;39.08;;;;;;;;;;5131539;27;20078;-72
2021/06/06 08:46:59;;;;;;;70.88;36.95;;;;;;;;;;5147128;27;20046;-69
2021/06/06 08:49:26;;;;;;;79.40;40.65;;;;;;;;;;5154096;27;20474;-71
2021/06/06 08:52:06;;;;;;;75.43;38.30;;;;;;;;;;5149838;27;20041;-71
2021/06/06 08:54:42;;;;;;;62.75;35.95;;;;;;;;;;5141717;27;20034;-70
2021/06/06 08:57:32;;;;;;;81.57;41.05;;;;;;;;;;5151186;27;20053;-69
2021/06/06 08:59:59;;;;;;;63.72;36.33;;;;;;;;;;5139258;27;20482;-71
2021/06/06 09:02:31;;;;;;;62.08;35.75;;;;;;;;;;5148106;27;20110;-74
2021/06/06 09:04:58;;;;;;;60.58;33.55;;;;;;;;;;5148819;27;20053;-71
2021/06/06 09:07:39;;;;;;;62.25;34.47;;;;;;;;;;5156243;27;20113;-73
2021/06/06 09:10:11;;;;;;;52.33;33.20;;;;;;;;;;5125208;27;20039;-72
2021/06/06 09:12:37;;;;;;;50.88;31.63;;;;;;;;;;5120404;27;20034;-70
2021/06/06 09:15:04;;;;;;;49.88;29.90;;;;;;;;;;5152879;27;20034;-72
2021/06/06 09:17:39;;;;;;;46.45;27.83;;;;;;;;;;5159519;27;20039;-75
2021/06/06 09:20:27;;;;;;;41.85;26.83;;;;;;;;;;5151906;27;20038;-70
2021/06/06 09:23:03;;;;;;;39.42;26.40;;;;;;;;;;5129196;27;20051;-73
2021/06/06 09:25:36;;;;;;;31.10;20.42;;;;;;;;;;5135404;27;20045;-76
2021/06/06 09:28:07;;;;;;;31.95;20.50;;;;;;;;;;5155414;27;20038;-71
2021/06/06 09:30:34;;;;;;;26.42;19.00;;;;;;;;;;5122738;27;20080;-70
2021/06/06 09:33:10;;;;;;;25.75;19.23;;;;;;;;;;5127341;27;20041;-73
2021/06/06 09:35:39;;;;;;;21.83;16.60;;;;;;;;;;5125218;27;20034;-70
2021/06/06 09:38:10;;;;;;;18.25;12.88;;;;;;;;;;5153251;27;20109;-74
2021/06/06 09:40:38;;;;;;;14.93;11.45;;;;;;;;;;5131475;27;20034;-73
2021/06/06 09:43:06;;;;;;;13.77;10.85;;;;;;;;;;5107375;27;20038;-73
2021/06/06 09:45:34;;;;;;;11.80;10.10;;;;;;;;;;5113099;27;20059;-72
2021/06/06 09:48:06;;;;;;;12.50;9.52;;;;;;;;;;5150477;27;20049;-69
2021/06/06 09:50:35;;;;;;;13.15;9.85;;;;;;;;;;5158435;27;20038;-75
2021/06/06 09:53:36;;;;;;;13.48;10.90;;;;;;;;;;5154430;27;20476;-72
2021/06/06 09:56:12;;;;;;;13.68;10.95;;;;;;;;;;5102722;27;20050;-69
2021/06/06 09:58:40;;;;;;;11.60;10.40;;;;;;;;;;5156457;27;20084;-72
2021/06/06 10:01:19;;;;;;;13.10;9.35;;;;;;;;;;5156089;27;20084;-70
2021/06/06 10:03:54;;;;;;;10.27;8.00;;;;;;;;;;5129280;27;20063;-70
2021/06/06 10:06:37;;;;;;;7.57;6.78;;;;;;;;;;5147745;27;20035;-69
2021/06/06 10:09:06;;;;;;;8.50;6.90;;;;;;;;;;5125651;27;20039;-70
2021/06/06 10:11:40;;;;;;;9.18;7.57;;;;;;;;;;5149606;27;20554;-73
2021/06/06 10:14:07;;;;;;;14.23;9.07;;;;;;;;;;5155451;27;20039;-69
2021/06/06 10:16:39;;;;;;;10.90;9.40;;;;;;;;;;5159791;27;20046;-73
2021/06/06 10:19:05;;;;;;;13.95;10.23;;;;;;;;;;5133433;27;20071;-69
2021/06/06 10:21:34;;;;;;;15.77;11.45;;;;;;;;;;5126883;27;20511;-70
2021/06/06 10:24:05;;;;;;;18.70;12.88;;;;;;;;;;5138068;27;20043;-70
2021/06/06 10:26:39;;;;;;;18.95;14.65;;;;;;;;;;5148248;27;20537;-70
2021/06/06 10:29:08;;;;;;;23.95;16.55;;;;;;;;;;5148517;27;20111;-70
2021/06/06 10:31:40;;;;;;;22.27;17.83;;;;;;;;;;5146962;27;20035;-72
2021/06/06 10:34:21;;;;;;;29.15;19.67;;;;;;;;;;5129650;27;20035;-71
2021/06/06 10:36:47;;;;;;;35.63;21.77;;;;;;;;;;5127990;27;20503;-70
2021/06/06 10:39:19;;;;;;;27.45;20.65;;;;;;;;;;5148867;27;20167;-70
2021/06/06 10:41:54;;;;;;;29.45;19.55;;;;;;;;;;5128948;27;20073;-71
2021/06/06 10:44:27;;;;;;;28.17;19.42;;;;;;;;;;5156461;27;20042;-70
2021/06/06 10:47:01;;;;;;;32.40;20.83;;;;;;;;;;5153946;27;20624;-72
2021/06/06 10:49:36;;;;;;;30.10;19.45;;;;;;;;;;5134911;27;20481;-69
2021/06/06 10:52:21;;;;;;;27.10;18.88;;;;;;;;;;5152155;27;20488;-70
2021/06/06 10:54:48;;;;;;;28.92;18.67;;;;;;;;;;5151174;27;20114;-71
2021/06/06 10:57:16;;;;;;;33.00;21.80;;;;;;;;;;5141600;27;20042;-72
2021/06/06 10:59:42;;;;;;;25.40;16.95;;;;;;;;;;5153267;27;20034;-71
2021/06/06 11:02:11;;;;;;;25.08;15.88;;;;;;;;;;5132795;27;20035;-77
2021/06/06 11:04:51;;;;;;;25.77;18.30;;;;;;;;;;5153973;27;20496;-79
2021/06/06 11:07:17;;;;;;;19.10;13.77;;;;;;;;;;5145302;27;20038;-75
2021/06/06 11:09:48;;;;;;;19.05;13.43;;;;;;;;;;5149632;27;20035;-77
2021/06/06 11:12:27;;;;;;;18.17;12.68;;;;;;;;;;5137942;27;20095;-76
2021/06/06 11:14:54;;;;;;;19.20;12.43;;;;;;;;;;5138311;27;20087;-71
2021/06/06 11:17:40;;;;;;;16.10;12.25;;;;;;;;;;5141894;27;20051;-73
2021/06/06 11:20:09;;;;;;;18.52;11.95;;;;;;;;;;5137953;27;20042;-77
2021/06/06 11:22:37;;;;;;;16.52;12.10;;;;;;;;;;5155277;27;20039;-74
2021/06/06 11:25:05;;;;;;;15.20;11.13;;;;;;;;;;5156724;27;20074;-74
2021/06/06 11:27:35;;;;;;;12.38;9.82;;;;;;;;;;5171072;27;20448;-76
2021/06/06 11:30:20;;;;;;;11.90;10.23;;;;;;;;;;5138658;27;20158;-75
2021/06/06 11:33:02;;;;;;;16.27;10.27;;;;;;;;;;5137865;27;20050;-72
2021/06/06 11:35:37;;;;;;;15.45;11.10;;;;;;;;;;5161986;27;20070;-71
2021/06/06 11:38:12;;;;;;;19.10;12.20;;;;;;;;;;5151462;27;20245;-75
2021/06/06 11:40:41;;;;;;;14.77;11.15;;;;;;;;;;5124593;27;20461;-75
2021/06/06 11:43:20;;;;;;;15.23;9.75;;;;;;;;;;5155722;27;20567;-74
2021/06/06 11:45:50;;;;;;;14.32;10.07;;;;;;;;;;5153888;27;20087;-74
2021/06/06 11:48:26;;;;;;;17.52;10.13;;;;;;;;;;5125391;27;20485;-80
2021/06/06 11:50:56;;;;;;;13.90;10.70;;;;;;;;;;5127827;27;20047;-81
2021/06/06 11:53:25;;;;;;;18.95;11.13;;;;;;;;;;5136165;27;20455;-73
2021/06/06 11:55:52;;;;;;;16.30;11.30;;;;;;;;;;5155567;27;20096;-75
2021/06/06 11:58:21;;;;;;;16.00;11.15;;;;;;;;;;5122664;27;20047;-76
2021/06/06 12:00:52;;;;;;;18.35;12.52;;;;;;;;;;5135351;27;20420;-70
2021/06/06 12:03:29;;;;;;;18.95;12.23;;;;;;;;;;5153521;27;20414;-71
2021/06/06 12:05:59;;;;;;;20.13;12.38;;;;;;;;;;5161629;27;20073;-71
2021/06/06 12:08:52;;;;;;;23.58;14.77;;;;;;;;;;5148226;27;20050;-75
2021/06/06 12:11:21;;;;;;;23.27;15.02;;;;;;;;;;5145899;27;20053;-72
2021/06/06 12:13:48;;;;;;;23.42;15.57;;;;;;;;;;5149721;27;20079;-74
2021/06/06 12:16:17;;;;;;;24.55;16.40;;;;;;;;;;5141609;27;20078;-71
2021/06/06 12:18:44;;;;;;;31.17;15.63;;;;;;;;;;5149573;27;20050;-71
2021/06/06 12:21:12;;;;;;;26.48;14.88;;;;;;;;;;5146206;27;20130;-71
2021/06/06 12:23:44;;;;;;;27.45;15.05;;;;;;;;;;5165068;27;20047;-71
2021/06/06 12:26:12;;;;;;;28.67;16.63;;;;;;;;;;5164174;27;20050;-70
2021/06/06 12:28:40;;;;;;;25.42;15.00;;;;;;;;;;5147093;27;20489;-72
2021/06/06 12:31:08;;;;;;;24.88;16.70;;;;;;;;;;5128847;27;20171;-70
2021/06/06 12:33:36;;;;;;;27.55;15.48;;;;;;;;;;5152038;27;20087;-71
2021/06/06 12:36:16;;;;;;;32.00;16.17;;;;;;;;;;5141252;27;20100;-70
2021/06/06 12:38:44;;;;;;;24.35;14.82;;;;;;;;;;5151659;27;20034;-70
2021/06/06 12:41:11;;;;;;;23.27;14.93;;;;;;;;;;5157437;27;20058;-70
2021/06/06 12:43:41;;;;;;;21.60;14.73;;;;;;;;;;5147931;27;20042;-71
2021/06/06 12:46:08;;;;;;;28.63;15.63;;;;;;;;;;5134293;27;20063;-70
2021/06/06 12:48:36;;;;;;;26.92;14.32;;;;;;;;;;5151535;27;20043;-71
2021/06/06 12:51:21;;;;;;;30.52;16.05;;;;;;;;;;5149081;27;20038;-73
2021/06/06 12:53:48;;;;;;;28.20;16.48;;;;;;;;;;5152333;27;20039;-78
2021/06/06 12:56:17;;;;;;;22.95;15.45;;;;;;;;;;5143406;27;20035;-71
2021/06/06 12:58:43;;;;;;;29.27;15.77;;;;;;;;;;5151664;27;20050;-72
2021/06/06 13:01:09;;;;;;;27.00;16.20;;;;;;;;;;5137491;27;20685;-73
2021/06/06 13:03:41;;;;;;;22.52;14.50;;;;;;;;;;5135139;27;20543;-70
2021/06/06 13:06:13;;;;;;;27.92;15.68;;;;;;;;;;5130789;27;20474;-71
2021/06/06 13:08:39;;;;;;;23.42;13.48;;;;;;;;;;5125418;27;20069;-71
2021/06/06 13:11:09;;;;;;;25.95;16.25;;;;;;;;;;5134608;27;20074;-71
2021/06/06 13:13:48;;;;;;;26.92;15.07;;;;;;;;;;5120807;27;20040;-71
2021/06/06 13:16:35;;;;;;;25.13;14.70;;;;;;;;;;5120202;27;20065;-71
2021/06/06 13:19:06;;;;;;;27.30;14.55;;;;;;;;;;5142485;27;20103;-71
2021/06/06 13:21:34;;;;;;;21.25;13.50;;;;;;;;;;5128541;27;20043;-70
2021/06/06 13:24:08;;;;;;;25.45;14.77;;;;;;;;;;5146066;27;20389;-70
2021/06/06 13:26:36;;;;;;;24.80;15.27;;;;;;;;;;5134542;27;20051;-70
2021/06/06 13:29:04;;;;;;;28.00;15.07;;;;;;;;;;5127324;27;20039;-70
2021/06/06 13:31:36;;;;;;;23.02;15.38;;;;;;;;;;5124336;27;20511;-70
2021/06/06 13:34:03;;;;;;;30.35;16.65;;;;;;;;;;5113888;27;20071;-72
2021/06/06 13:36:29;;;;;;;30.50;16.50;;;;;;;;;;5119739;27;20042;-72
2021/06/06 13:38:58;;;;;;;25.27;15.85;;;;;;;;;;5125665;27;20030;-76
2021/06/06 13:41:25;;;;;;;22.98;15.55;;;;;;;;;;5140177;27;20474;-70
2021/06/06 13:43:52;;;;;;;25.60;15.55;;;;;;;;;;5134332;27;20065;-70
2021/06/06 13:46:20;;;;;;;24.23;16.52;;;;;;;;;;5126496;27;20570;-70
2021/06/06 13:48:47;;;;;;;21.88;14.98;;;;;;;;;;5125397;27;20462;-71
2021/06/06 13:51:14;;;;;;;21.45;14.25;;;;;;;;;;5133096;27;20045;-70
2021/06/06 13:53:42;;;;;;;22.60;15.27;;;;;;;;;;5116503;27;20101;-70
2021/06/06 13:56:08;;;;;;;23.92;14.95;;;;;;;;;;5112099;27;20387;-70
2021/06/06 13:58:34;;;;;;;21.15;13.55;;;;;;;;;;5128269;27;20031;-70
2021/06/06 14:01:01;;;;;;;19.52;14.10;;;;;;;;;;5130201;27;20045;-70
2021/06/06 14:03:45;;;;;;;21.98;13.18;;;;;;;;;;5131588;27;20558;-72
2021/06/06 14:06:14;;;;;;;23.77;12.48;;;;;;;;;;5122824;27;20031;-72
2021/06/06 14:08:41;;;;;;;26.92;12.38;;;;;;;;;;5141543;27;20052;-71
2021/06/06 14:11:09;;;;;;;24.17;13.63;;;;;;;;;;5121498;27;20485;-70
2021/06/06 14:13:37;;;;;;;20.02;12.35;;;;;;;;;;5126591;27;20043;-72
2021/06/06 14:16:06;;;;;;;19.63;10.93;;;;;;;;;;5136287;27;20497;-71
2021/06/06 14:18:32;;;;;;;21.90;11.82;;;;;;;;;;5141204;27;20043;-73
2021/06/06 14:20:59;;;;;;;18.25;11.38;;;;;;;;;;5138086;27;20069;-82
2021/06/06 14:23:26;;;;;;;15.00;11.15;;;;;;;;;;5139717;27;20535;-81
2021/06/06 14:25:53;;;;;;;19.88;11.23;;;;;;;;;;5144567;27;20035;-76
2021/06/06 14:28:21;;;;;;;22.55;12.20;;;;;;;;;;5127422;27;20043;-84
2021/06/06 14:30:48;;;;;;;23.80;11.50;;;;;;;;;;5119974;27;20043;-73